createdAt,value
2022-09-23T00:00:18.921Z,9.366220
2022-09-23T00:01:18.951Z,9.366278
2022-09-23T00:02:18.965Z,9.365877
2022-09-23T00:03:18.863Z,9.366029
2022-09-23T00:04:18.860Z,9.366015
2022-09-23T00:05:18.833Z,9.366101
2022-09-23T00:06:18.850Z,9.365996
2022-09-23T00:07:18.835Z,9.366009
2022-09-23T00:08:18.800Z,9.366005
2022-09-23T00:09:18.797Z,9.366036
2022-09-23T00:10:18.789Z,9.366064
2022-09-23T00:11:18.802Z,9.365980
2022-09-23T00:12:29.946Z,9.366055
2022-09-23T00:13:18.801Z,9.365951
2022-09-23T00:14:18.746Z,9.365991
2022-09-23T00:15:18.723Z,9.366027
2022-09-23T00:16:18.800Z,9.366008
2022-09-23T00:17:18.714Z,9.365931
2022-09-23T00:18:18.709Z,9.365864
2022-09-23T00:19:18.679Z,9.365861
2022-09-23T00:20:18.695Z,9.365861
2022-09-23T00:21:18.702Z,9.365973
2022-09-23T00:22:18.638Z,9.365985
2022-09-23T00:23:18.647Z,9.366026
2022-09-23T00:24:18.654Z,9.366014
2022-09-23T00:25:18.658Z,9.366117
2022-09-23T00:26:18.613Z,9.366013
2022-09-23T00:27:18.652Z,9.366005
2022-09-23T00:28:18.585Z,9.365985
2022-09-23T00:29:19.379Z,9.366002
2022-09-23T00:30:18.574Z,9.366054
2022-09-23T00:31:18.619Z,9.365944
2022-09-23T00:32:18.594Z,9.365901
2022-09-23T00:33:18.542Z,9.365909
2022-09-23T00:34:18.542Z,9.365972
2022-09-23T00:35:18.530Z,9.366072
2022-09-23T00:36:18.509Z,9.366040
2022-09-23T00:37:18.503Z,9.365971
2022-09-23T00:38:19.262Z,9.365973
2022-09-23T00:39:18.496Z,9.366002
2022-09-23T00:40:18.499Z,9.365926
2022-09-23T00:41:18.450Z,9.365973
2022-09-23T00:42:18.471Z,9.366026
2022-09-23T00:43:18.461Z,9.365956
2022-09-23T00:44:18.415Z,9.365981
2022-09-23T00:45:18.424Z,9.365952
2022-09-23T00:46:18.431Z,9.365973
2022-09-23T00:47:18.398Z,9.365962
2022-09-23T00:48:18.415Z,9.365906
2022-09-23T00:49:18.391Z,9.365968
2022-09-23T00:50:18.360Z,9.365967
2022-09-23T00:51:18.351Z,9.365955
2022-09-23T00:52:18.338Z,9.365969
2022-09-23T00:53:18.313Z,9.365965
2022-09-23T00:54:18.328Z,9.366027
2022-09-23T00:55:18.304Z,9.365933
2022-09-23T00:56:18.289Z,9.366054
2022-09-23T00:57:18.276Z,9.365949
2022-09-23T00:58:18.270Z,9.366151
2022-09-23T00:59:18.295Z,9.366033
2022-09-23T01:00:18.250Z,9.366331
2022-09-23T01:01:18.257Z,9.366078
2022-09-23T01:02:18.295Z,9.365860
2022-09-23T01:03:18.211Z,9.365810
2022-09-23T01:04:18.233Z,9.365681
2022-09-23T01:05:18.205Z,9.365840
2022-09-23T01:06:18.210Z,9.365840
2022-09-23T01:07:18.173Z,9.365911
2022-09-23T01:08:18.154Z,9.365884
2022-09-23T01:09:18.146Z,9.365849
2022-09-23T01:10:18.149Z,9.365818
2022-09-23T01:11:18.143Z,9.365837
2022-09-23T01:12:18.149Z,9.365813
2022-09-23T01:13:18.089Z,9.366165
2022-09-23T01:14:18.099Z,9.366320
2022-09-23T01:15:18.082Z,9.366174
2022-09-23T01:16:18.126Z,9.366124
2022-09-23T01:17:18.047Z,9.366002
2022-09-23T01:18:18.058Z,9.365895
2022-09-23T01:19:18.050Z,9.365940
2022-09-23T01:20:18.031Z,9.365767
2022-09-23T01:21:18.003Z,9.366022
2022-09-23T01:22:17.996Z,9.366021
2022-09-23T01:23:17.972Z,9.366234
2022-09-23T01:24:18.008Z,9.366316
2022-09-23T01:25:18.010Z,9.366255
2022-09-23T01:26:17.939Z,9.365993
2022-09-23T01:27:18.934Z,9.366145
2022-09-23T01:28:17.936Z,9.365848
2022-09-23T01:29:17.920Z,9.365909
2022-09-23T01:30:17.921Z,9.366096
2022-09-23T01:31:17.978Z,9.366295
2022-09-23T01:32:17.878Z,9.366336
2022-09-23T01:33:17.865Z,9.365988
2022-09-23T01:34:17.865Z,9.365989
2022-09-23T01:35:17.852Z,9.366132
2022-09-23T01:36:17.873Z,9.366571
2022-09-23T01:37:17.847Z,9.366578
2022-09-23T01:38:17.835Z,9.366647
2022-09-23T01:39:17.806Z,9.366199
2022-09-23T01:40:17.864Z,9.365878
2022-09-23T01:41:17.805Z,9.365825
2022-09-23T01:42:17.774Z,9.366047
2022-09-23T01:43:17.770Z,9.365625
2022-09-23T01:44:17.734Z,9.364369
2022-09-23T01:45:17.745Z,9.364490
2022-09-23T01:46:17.738Z,9.365675
2022-09-23T01:47:17.733Z,9.366034
2022-09-23T01:48:17.718Z,9.366718
2022-09-23T01:49:17.722Z,9.366560
2022-09-23T01:50:17.694Z,9.366179
2022-09-23T01:51:17.706Z,9.366111
2022-09-23T01:52:17.703Z,9.366319
2022-09-23T01:53:17.638Z,9.366241
2022-09-23T01:54:17.642Z,9.366040
2022-09-23T01:55:17.640Z,9.366201
2022-09-23T01:56:17.619Z,9.366427
2022-09-23T01:57:17.647Z,9.366298
2022-09-23T01:58:17.591Z,9.366097
2022-09-23T01:59:17.593Z,9.366161
2022-09-23T02:00:17.554Z,9.365946
2022-09-23T02:01:17.636Z,9.365765
2022-09-23T02:02:17.610Z,9.365935
2022-09-23T02:03:17.559Z,9.365945
2022-09-23T02:04:17.550Z,9.365884
2022-09-23T02:05:17.526Z,9.366013
2022-09-23T02:06:17.553Z,9.365914
2022-09-23T02:07:17.496Z,9.365911
2022-09-23T02:08:17.518Z,9.365964
2022-09-23T02:09:18.479Z,9.366016
2022-09-23T02:10:17.504Z,9.366430
2022-09-23T02:11:17.462Z,9.365568
2022-09-23T02:12:17.477Z,9.365806
2022-09-23T02:13:17.477Z,9.365858
2022-09-23T02:14:17.447Z,9.366083
2022-09-23T02:15:17.427Z,9.365967
2022-09-23T02:16:17.405Z,9.365855
2022-09-23T02:17:17.391Z,9.365826
2022-09-23T02:18:17.411Z,9.365931
2022-09-23T02:19:17.382Z,9.365835
2022-09-23T02:20:17.366Z,9.366107
2022-09-23T02:21:17.360Z,9.365974
2022-09-23T02:22:17.324Z,9.365940
2022-09-23T02:23:17.349Z,9.365932
2022-09-23T02:24:17.341Z,9.365931
2022-09-23T02:25:17.441Z,9.365892
2022-09-23T02:26:17.289Z,9.365902
2022-09-23T02:27:17.292Z,9.366000
2022-09-23T02:28:17.501Z,9.366000
2022-09-23T02:29:17.281Z,9.365922
2022-09-23T02:30:17.263Z,9.365537
2022-09-23T02:31:17.255Z,9.365854
2022-09-23T02:32:17.239Z,9.365951
2022-09-23T02:33:17.235Z,9.365993
2022-09-23T02:34:17.230Z,9.365875
2022-09-23T02:35:17.189Z,9.365925
2022-09-23T02:36:17.175Z,9.365978
2022-09-23T02:37:17.340Z,9.365979
2022-09-23T02:38:17.148Z,9.366021
2022-09-23T02:39:17.185Z,9.366001
2022-09-23T02:40:17.217Z,9.365957
2022-09-23T02:41:17.126Z,9.366031
2022-09-23T02:42:17.122Z,9.366026
2022-09-23T02:43:17.105Z,9.365795
2022-09-23T02:44:17.127Z,9.365978
2022-09-23T02:45:17.080Z,9.366337
2022-09-23T02:46:17.124Z,9.366215
2022-09-23T02:47:17.041Z,9.366023
2022-09-23T02:48:17.058Z,9.365786
2022-09-23T02:49:17.035Z,9.365983
2022-09-23T02:50:17.052Z,9.365995
2022-09-23T02:51:17.015Z,9.366008
2022-09-23T02:52:17.018Z,9.366054
2022-09-23T02:53:16.985Z,9.366000
2022-09-23T02:54:17.005Z,9.366107
2022-09-23T02:55:16.999Z,9.366088
2022-09-23T02:56:16.958Z,9.366035
2022-09-23T02:57:16.946Z,9.365937
2022-09-23T02:58:16.921Z,9.366089
2022-09-23T04:39:41.487Z,9.368880
2022-09-23T04:40:41.571Z,9.368296
2022-09-23T04:41:41.467Z,9.368242
2022-09-23T04:42:41.459Z,9.368143
2022-09-23T04:43:41.452Z,9.368034
2022-09-23T04:44:41.859Z,9.367610
2022-09-23T04:45:41.416Z,9.367790
2022-09-23T04:46:41.523Z,9.367713
2022-09-23T04:47:41.384Z,9.367713
2022-09-23T04:48:41.420Z,9.367713
2022-09-23T04:49:41.371Z,9.367907
2022-09-23T04:50:41.357Z,9.366899
2022-09-23T04:51:41.352Z,9.366275
2022-09-23T04:52:41.329Z,9.366275
2022-09-23T04:53:41.722Z,9.368033
2022-09-23T04:54:41.325Z,9.367181
2022-09-23T04:55:41.301Z,9.367223
2022-09-23T04:56:41.297Z,9.366854
2022-09-23T04:57:41.259Z,9.367039
2022-09-23T04:58:41.274Z,9.366823
2022-09-23T04:59:41.264Z,9.366823
2022-09-23T05:00:41.258Z,9.366686
2022-09-23T05:01:41.279Z,9.366045
2022-09-23T05:02:41.202Z,9.365958
2022-09-23T05:03:41.204Z,9.366090
2022-09-23T05:04:41.195Z,9.366128
2022-09-23T05:05:41.176Z,9.366080
2022-09-23T05:06:41.147Z,9.365967
2022-09-23T05:07:41.147Z,9.366057
2022-09-23T05:08:41.138Z,9.365964
2022-09-23T05:09:41.153Z,9.366096
2022-09-23T05:10:41.121Z,9.366049
2022-09-23T05:11:41.117Z,9.365993
2022-09-23T05:12:41.086Z,9.366011
2022-09-23T05:13:41.097Z,9.366054
2022-09-23T05:14:41.103Z,9.366057
2022-09-23T05:15:41.062Z,9.366167
2022-09-23T05:16:41.123Z,9.366088
2022-09-23T05:17:41.033Z,9.366139
2022-09-23T05:18:41.012Z,9.366040
2022-09-23T05:19:41.052Z,9.365987
2022-09-23T05:20:40.997Z,9.366018
2022-09-23T05:21:40.996Z,9.366039
2022-09-23T05:22:40.963Z,9.366075
2022-09-23T05:23:40.966Z,9.366170
2022-09-23T05:24:40.949Z,9.366244
2022-09-23T05:25:40.991Z,9.366181
2022-09-23T05:26:40.927Z,9.366151
2022-09-23T05:27:40.925Z,9.366074
2022-09-23T05:28:40.903Z,9.366080
2022-09-23T05:29:40.880Z,9.366106
2022-09-23T05:30:40.943Z,9.365916
2022-09-23T05:31:41.160Z,9.365922
2022-09-23T05:32:40.862Z,9.365889
2022-09-23T05:33:40.852Z,9.365985
2022-09-23T05:34:40.839Z,9.366127
2022-09-23T05:35:40.827Z,9.366050
2022-09-23T05:36:40.841Z,9.366088
2022-09-23T05:37:40.794Z,9.366030
2022-09-23T05:38:40.784Z,9.365954
2022-09-23T05:39:41.530Z,9.365913
2022-09-23T05:40:40.873Z,9.365874
2022-09-23T05:41:40.808Z,9.365891
2022-09-23T05:42:40.756Z,9.365960
2022-09-23T05:43:40.739Z,9.365930
2022-09-23T05:44:40.732Z,9.365880
2022-09-23T05:45:40.716Z,9.365900
2022-09-23T05:46:40.749Z,9.365863
2022-09-23T05:47:40.696Z,9.365949
2022-09-23T05:48:41.371Z,9.365851
2022-09-23T05:49:58.639Z,9.366015
2022-09-23T05:50:40.666Z,9.366069
2022-09-23T05:51:40.660Z,9.366080
2022-09-23T05:52:40.658Z,9.366045
2022-09-23T05:53:40.638Z,9.365941
2022-09-23T05:54:40.626Z,9.365954
2022-09-23T05:55:40.607Z,9.365958
2022-09-23T05:56:40.596Z,9.365948
2022-09-23T05:57:40.620Z,9.365919
2022-09-23T05:58:40.573Z,9.365937
2022-09-23T05:59:40.580Z,9.365903
2022-09-23T06:00:40.548Z,9.366060
2022-09-23T06:01:40.579Z,9.365981
2022-09-23T06:02:40.642Z,9.365874
2022-09-23T06:03:40.534Z,9.365909
2022-09-23T06:04:40.504Z,9.365915
2022-09-23T06:05:40.509Z,9.366017
2022-09-23T06:06:40.483Z,9.365960
2022-09-23T06:07:40.482Z,9.365945
2022-09-23T06:08:40.488Z,9.365972
2022-09-23T06:09:41.451Z,9.366088
2022-09-23T06:10:40.447Z,9.366036
2022-09-23T06:11:40.428Z,9.365945
2022-09-23T06:12:40.441Z,9.366139
2022-09-23T06:13:40.425Z,9.366029
2022-09-23T06:14:40.396Z,9.366013
2022-09-23T06:15:40.431Z,9.365901
2022-09-23T06:16:40.363Z,9.366044
2022-09-23T06:17:40.360Z,9.366040
2022-09-23T06:18:40.400Z,9.365969
2022-09-23T06:19:40.334Z,9.365801
2022-09-23T06:20:40.321Z,9.366010
2022-09-23T06:21:40.321Z,9.365912
2022-09-23T06:22:40.339Z,9.365964
2022-09-23T06:23:41.768Z,9.365910
2022-09-23T06:24:40.288Z,9.366110
2022-09-23T06:25:40.276Z,9.366041
2022-09-23T06:26:40.254Z,9.366056
2022-09-23T06:27:40.264Z,9.366142
2022-09-23T06:28:40.237Z,9.366028
2022-09-23T06:29:40.262Z,9.366038
2022-09-23T06:30:40.207Z,9.365959
2022-09-23T06:31:40.254Z,9.366019
2022-09-23T06:32:40.195Z,9.366102
2022-09-23T06:33:40.187Z,9.366039
2022-09-23T06:34:50.366Z,9.366120
2022-09-23T06:35:40.791Z,9.366797
2022-09-23T06:36:44.570Z,9.366784
2022-09-23T06:37:40.137Z,9.366365
2022-09-23T06:38:40.127Z,9.366121
2022-09-23T06:39:40.115Z,9.365986
2022-09-23T06:40:40.208Z,9.365891
2022-09-23T06:41:40.077Z,9.365895
2022-09-23T06:42:40.086Z,9.365957
2022-09-23T06:43:40.064Z,9.365952
2022-09-23T06:44:40.050Z,9.366137
2022-09-23T06:45:40.070Z,9.366332
2022-09-23T06:46:40.097Z,9.366126
2022-09-23T06:47:40.030Z,9.366057
2022-09-23T06:48:42.852Z,9.366080
2022-09-23T06:49:40.006Z,9.366163
2022-09-23T06:50:39.997Z,9.366141
2022-09-23T06:51:39.989Z,9.366050
2022-09-23T06:52:39.969Z,9.365894
2022-09-23T06:53:39.964Z,9.365920
2022-09-23T06:54:39.948Z,9.365993
2022-09-23T06:55:39.936Z,9.365948
2022-09-23T06:56:40.230Z,9.365964
2022-09-23T06:57:39.912Z,9.365963
2022-09-23T06:58:39.890Z,9.365905
2022-09-23T06:59:40.895Z,9.365940
2022-09-23T07:00:39.876Z,9.365983
2022-09-23T07:01:40.004Z,9.366017
2022-09-23T07:02:39.947Z,9.366029
2022-09-23T07:03:39.849Z,9.366039
2022-09-23T07:04:39.852Z,9.366055
2022-09-23T07:05:39.814Z,9.365990
2022-09-23T07:06:39.811Z,9.365971
2022-09-23T07:07:39.814Z,9.365973
2022-09-23T07:08:39.786Z,9.365929
2022-09-23T07:09:39.762Z,9.365920
2022-09-23T07:10:39.776Z,9.366062
2022-09-23T07:11:39.773Z,9.366001
2022-09-23T07:12:39.773Z,9.365989
2022-09-23T07:13:39.726Z,9.365950
2022-09-23T07:14:39.717Z,9.366054
2022-09-23T07:15:39.764Z,9.366014
2022-09-23T07:16:39.685Z,9.365994
2022-09-23T07:17:39.726Z,9.365977
2022-09-23T07:18:39.678Z,9.366035
2022-09-23T07:19:39.676Z,9.366001
2022-09-23T07:20:39.659Z,9.366038
2022-09-23T07:21:39.636Z,9.365945
2022-09-23T07:22:39.626Z,9.365975
2022-09-23T07:23:39.642Z,9.365993
2022-09-23T07:24:39.614Z,9.365945
2022-09-23T07:25:39.598Z,9.366076
2022-09-23T07:26:44.868Z,9.365999
2022-09-23T07:27:39.578Z,9.366049
2022-09-23T07:28:39.588Z,9.365962
2022-09-23T07:29:48.169Z,9.366005
2022-09-23T07:30:44.250Z,9.366010
2022-09-23T07:31:40.196Z,9.366004
2022-09-23T07:32:48.273Z,9.365975
2022-09-23T07:33:39.557Z,9.366088
2022-09-23T07:34:39.505Z,9.366029
2022-09-23T07:35:39.493Z,9.366090
2022-09-23T07:36:39.476Z,9.366063
2022-09-23T07:37:39.472Z,9.366006
2022-09-23T07:38:44.982Z,9.365909
2022-09-23T07:39:39.471Z,9.365891
2022-09-23T07:40:39.469Z,9.366014
2022-09-23T07:41:39.416Z,9.365954
2022-09-23T07:42:39.418Z,9.365995
2022-09-23T07:43:39.406Z,9.365973
2022-09-23T07:44:39.423Z,9.365970
2022-09-23T07:45:39.542Z,9.365998
2022-09-23T07:46:39.443Z,9.365966
2022-09-23T07:47:39.462Z,9.366016
2022-09-23T07:48:39.345Z,9.365984
2022-09-23T07:49:39.372Z,9.365930
2022-09-23T07:50:39.331Z,9.365922
2022-09-23T07:51:39.309Z,9.365927
2022-09-23T07:52:39.293Z,9.366018
2022-09-23T07:53:39.287Z,9.365918
2022-09-23T07:54:39.276Z,9.365849
2022-09-23T07:55:39.311Z,9.365913
2022-09-23T07:56:39.238Z,9.366024
2022-09-23T07:57:39.241Z,9.366091
2022-09-23T07:58:39.221Z,9.365944
2022-09-23T07:59:39.205Z,9.365971
2022-09-23T08:00:39.232Z,9.365984
2022-09-23T08:01:39.264Z,9.366096
2022-09-23T08:02:39.231Z,9.366059
2022-09-23T08:03:39.155Z,9.365966
2022-09-23T08:04:39.156Z,9.365946
2022-09-23T08:05:39.155Z,9.365943
2022-09-23T08:06:39.178Z,9.366035
2022-09-23T08:07:39.109Z,9.366023
2022-09-23T08:08:39.081Z,9.365955
2022-09-23T08:09:39.096Z,9.365945
2022-09-23T08:10:39.118Z,9.365991
2022-09-23T08:11:39.093Z,9.365976
2022-09-23T08:12:39.048Z,9.366007
2022-09-23T08:13:39.032Z,9.365949
2022-09-23T08:14:39.013Z,9.365904
2022-09-23T08:15:39.059Z,9.365952
2022-09-23T08:16:39.002Z,9.366156
2022-09-23T08:17:39.010Z,9.365965
2022-09-23T08:18:38.978Z,9.366014
2022-09-23T08:19:38.944Z,9.366083
2022-09-23T08:20:42.514Z,9.365998
2022-09-23T08:21:38.958Z,9.365918
2022-09-23T08:22:38.956Z,9.365870
2022-09-23T08:23:38.906Z,9.365983
2022-09-23T08:24:38.890Z,9.365933
2022-09-23T08:25:38.905Z,9.365971
2022-09-23T08:26:38.875Z,9.365992
2022-09-23T08:27:38.897Z,9.365996
2022-09-23T08:28:38.861Z,9.365979
2022-09-23T08:29:38.834Z,9.366057
2022-09-23T08:30:38.850Z,9.366032
2022-09-23T08:31:38.815Z,9.365979
2022-09-23T08:32:38.838Z,9.365955
2022-09-23T08:33:39.317Z,9.366023
2022-09-23T08:34:38.791Z,9.366017
2022-09-23T08:35:38.764Z,9.365895
2022-09-23T08:36:38.886Z,9.365910
2022-09-23T09:16:02.573Z,9.364040
2022-09-23T09:17:02.540Z,9.364040
2022-09-23T09:18:02.263Z,9.363473
2022-09-23T09:19:02.291Z,9.364571
2022-09-23T09:20:02.220Z,9.364571
2022-09-23T09:21:02.226Z,9.366694
2022-09-23T09:22:02.227Z,9.366698
2022-09-23T09:23:02.185Z,9.366052
2022-09-23T09:24:02.225Z,9.366121
2022-09-23T09:25:02.196Z,9.366278
2022-09-23T09:26:02.162Z,9.366382
2022-09-23T09:27:02.153Z,9.366276
2022-09-23T09:28:02.144Z,9.366272
2022-09-23T09:47:50.511Z,9.366031
2022-09-23T09:48:50.492Z,9.366285
2022-09-23T09:49:50.473Z,9.366287
2022-09-23T09:50:50.421Z,9.366216
2022-09-23T09:51:50.408Z,9.366364
2022-09-23T09:52:50.385Z,9.366017
2022-09-23T09:53:50.336Z,9.365539
2022-09-23T09:54:50.367Z,9.365964
2022-09-23T09:55:50.311Z,9.365936
2022-09-23T09:56:50.331Z,9.365843
2022-09-23T09:57:50.380Z,9.366041
2022-09-23T09:58:50.284Z,9.365962
2022-09-23T09:59:50.277Z,9.366331
2022-09-23T10:00:50.259Z,9.366174
2022-09-23T10:01:50.216Z,9.365859
2022-09-23T10:02:50.282Z,9.366093
2022-09-23T10:03:51.392Z,9.366093
2022-09-23T10:04:50.301Z,9.366078
2022-09-23T10:05:50.191Z,9.365958
2022-09-23T10:06:50.132Z,9.365954
2022-09-23T10:07:50.157Z,9.366084
2022-09-23T10:08:50.125Z,9.366152
2022-09-23T10:09:50.204Z,9.365967
2022-09-23T10:10:50.134Z,9.366085
2022-09-23T10:11:50.155Z,9.366105
2022-09-23T10:12:50.383Z,9.366191
2022-09-23T10:13:50.433Z,9.366271
2022-09-23T10:14:50.057Z,9.366216
2022-09-23T10:15:50.001Z,9.366050
2022-09-23T10:16:50.052Z,9.365880
2022-09-23T10:17:50.006Z,9.366047
2022-09-23T10:18:50.107Z,9.366040
2022-09-23T10:19:49.959Z,9.366019
2022-09-23T10:20:49.935Z,9.366253
2022-09-23T11:40:15.171Z,9.365991
2022-09-23T11:41:14.917Z,9.365956
2022-09-23T11:42:14.927Z,9.366020
2022-09-23T11:43:14.876Z,9.366029
2022-09-23T11:44:14.905Z,9.365985
2022-09-23T11:45:14.854Z,9.365946
2022-09-23T11:46:14.934Z,9.365955
2022-09-23T11:47:50.048Z,9.365985
2022-09-23T11:48:14.939Z,9.366001
2022-09-23T11:49:15.006Z,9.365973
2022-09-23T11:50:14.852Z,9.365956
2022-09-23T11:51:14.906Z,9.365971
2022-09-23T11:52:14.856Z,9.365904
2022-09-23T11:53:14.936Z,9.365961
2022-09-23T11:54:19.742Z,9.366007
2022-09-23T11:55:21.283Z,9.366003
2022-09-23T11:56:17.600Z,9.365990
2022-09-23T11:57:14.766Z,9.366003
2022-09-23T11:58:26.223Z,9.365782
2022-09-23T11:59:15.230Z,9.366026
2022-09-23T12:00:14.988Z,9.366058
2022-09-23T12:01:14.882Z,9.366055
2022-09-23T12:02:20.306Z,9.366024
2022-09-23T12:03:14.734Z,9.366026
2022-09-23T12:04:20.530Z,9.365998
2022-09-23T12:05:14.750Z,9.365934
2022-09-23T12:06:15.045Z,9.365547
2022-09-23T12:07:14.630Z,9.364824
2022-09-23T12:08:14.650Z,9.365561
2022-09-23T12:09:14.596Z,9.366097
2022-09-23T12:10:14.599Z,9.366097
2022-09-23T12:11:14.590Z,9.365945
2022-09-23T12:12:14.572Z,9.365978
2022-09-23T12:13:14.578Z,9.365961
2022-09-23T12:14:14.813Z,9.366142
2022-09-23T12:15:14.884Z,9.366100
2022-09-23T12:16:14.637Z,9.365962
2022-09-23T12:17:14.495Z,9.366023
2022-09-23T12:18:14.506Z,9.366059
2022-09-23T12:19:14.553Z,9.366074
2022-09-23T12:20:14.502Z,9.366096
2022-09-23T12:21:32.756Z,9.366014
2022-09-23T12:22:15.487Z,9.366017
2022-09-23T12:23:14.459Z,9.366043
2022-09-23T12:24:18.442Z,9.365978
2022-09-23T12:25:14.450Z,9.365969
2022-09-23T12:26:14.405Z,9.365845
2022-09-23T12:27:14.405Z,9.365830
2022-09-23T12:28:14.412Z,9.365955
2022-09-23T12:29:14.390Z,9.365939
2022-09-23T12:30:14.396Z,9.365916
2022-09-23T12:31:14.431Z,9.365921
2022-09-23T12:32:14.316Z,9.366000
2022-09-23T12:33:14.320Z,9.366003
2022-09-23T12:34:14.312Z,9.365983
2022-09-23T12:35:14.319Z,9.366011
2022-09-23T12:36:14.300Z,9.366070
2022-09-23T12:37:14.266Z,9.365984
2022-09-23T12:38:14.266Z,9.366061
2022-09-23T12:39:14.273Z,9.366078
2022-09-23T12:40:14.265Z,9.366179
2022-09-23T12:41:14.257Z,9.366190
2022-09-23T12:42:14.236Z,9.365984
2022-09-23T12:43:14.212Z,9.365975
2022-09-23T12:44:14.199Z,9.365919
2022-09-23T12:45:14.184Z,9.365891
2022-09-23T12:46:14.248Z,9.365954
2022-09-23T12:47:14.162Z,9.365953
2022-09-23T12:48:14.161Z,9.366049
2022-09-23T12:49:14.130Z,9.365999
2022-09-23T12:50:17.679Z,9.366128
2022-09-23T12:51:14.166Z,9.366138
2022-09-23T12:52:14.109Z,9.366340
2022-09-23T12:53:14.090Z,9.365824
2022-09-23T12:54:14.103Z,9.365473
2022-09-23T12:55:14.072Z,9.365968
2022-09-23T12:56:14.064Z,9.365897
2022-09-23T12:57:14.086Z,9.366042
2022-09-23T12:58:14.046Z,9.365912
2022-09-23T12:59:14.028Z,9.365894
2022-09-23T13:00:14.032Z,9.365987
2022-09-23T13:01:14.983Z,9.366061
2022-09-23T13:02:14.099Z,9.366127
2022-09-23T13:03:13.997Z,9.366019
2022-09-23T13:04:13.974Z,9.365687
2022-09-23T13:05:13.965Z,9.366003
2022-09-23T13:06:13.964Z,9.366063
2022-09-23T13:07:13.951Z,9.366063
2022-09-23T13:08:13.925Z,9.366013
2022-09-23T13:09:13.933Z,9.365954
2022-09-23T13:10:14.571Z,9.365995
2022-09-23T13:11:13.899Z,9.366096
2022-09-23T13:12:13.934Z,9.366016
2022-09-23T13:13:13.877Z,9.366008
2022-09-23T13:14:13.867Z,9.366010
2022-09-23T13:15:13.862Z,9.366032
2022-09-23T13:16:13.862Z,9.365993
2022-09-23T13:17:13.867Z,9.366001
2022-09-23T13:18:13.829Z,9.366005
2022-09-23T13:19:13.810Z,9.366046
2022-09-23T13:20:13.795Z,9.366024
2022-09-23T13:21:13.795Z,9.365957
2022-09-23T13:22:13.778Z,9.365932
2022-09-23T13:23:13.786Z,9.365927
2022-09-23T13:24:13.768Z,9.365889
2022-09-23T13:25:13.735Z,9.365943
2022-09-23T13:26:13.736Z,9.365952
2022-09-23T13:27:13.729Z,9.366058
2022-09-23T13:28:13.726Z,9.366020
2022-09-23T13:29:13.701Z,9.365989
2022-09-23T13:30:13.695Z,9.366014
2022-09-23T13:31:13.679Z,9.366031
2022-09-23T13:32:13.720Z,9.366005
2022-09-23T13:33:13.682Z,9.365979
2022-09-23T13:34:13.630Z,9.365999
2022-09-23T13:35:13.629Z,9.366032
2022-09-23T13:36:13.625Z,9.366026
2022-09-23T13:37:13.593Z,9.365956
2022-09-23T13:38:13.619Z,9.365986
2022-09-23T13:39:49.262Z,9.365981
2022-09-23T13:40:13.697Z,9.365952
2022-09-23T13:41:13.659Z,9.365948
2022-09-23T13:42:13.558Z,9.365925
2022-09-23T13:43:13.577Z,9.365989
2022-09-23T13:44:13.668Z,9.365947
2022-09-23T13:45:13.670Z,9.365917
2022-09-23T13:46:13.570Z,9.365962
2022-09-23T13:47:13.497Z,9.365964
2022-09-23T13:48:13.475Z,9.365923
2022-09-23T13:49:13.489Z,9.365930
2022-09-23T13:50:13.459Z,9.365944
2022-09-23T13:51:13.440Z,9.365482
2022-09-23T13:52:13.424Z,9.362149
2022-09-23T13:53:13.415Z,9.362149
2022-09-23T13:54:13.419Z,9.362149
2022-09-23T13:55:13.405Z,9.365755
2022-09-23T13:56:13.385Z,9.365524
2022-09-23T13:57:13.380Z,9.365892
2022-09-23T13:58:13.352Z,9.366019
2022-09-23T13:59:13.387Z,9.366089
2022-09-23T14:00:13.332Z,9.366274
2022-09-23T14:01:13.335Z,9.366040
2022-09-23T14:02:13.805Z,9.366040
2022-09-23T14:03:13.286Z,9.366040
2022-09-23T14:04:13.325Z,9.366040
2022-09-23T14:05:13.272Z,9.366040
2022-09-23T14:06:13.257Z,9.366040
2022-09-23T14:07:51.001Z,9.366040
2022-09-23T14:08:13.490Z,9.366040
2022-09-23T14:09:13.391Z,9.366040
2022-09-23T14:10:18.420Z,9.366040
2022-09-23T14:11:13.198Z,9.366040
2022-09-23T14:12:13.204Z,9.366040
2022-09-23T14:13:13.201Z,9.366040
2022-09-23T14:14:13.156Z,9.365910
2022-09-23T14:15:13.176Z,9.365698
2022-09-23T14:16:13.168Z,9.365770
2022-09-23T14:17:13.130Z,9.366135
2022-09-23T14:18:13.138Z,9.365981
2022-09-23T14:19:13.106Z,9.366050
2022-09-23T14:20:13.153Z,9.365926
2022-09-23T14:21:13.112Z,9.365770
2022-09-23T14:22:13.071Z,9.365772
2022-09-23T14:23:13.071Z,9.365915
2022-09-23T14:24:13.057Z,9.365724
2022-09-23T14:25:13.092Z,9.365843
2022-09-23T14:26:13.052Z,9.365904
2022-09-23T14:27:13.026Z,9.365923
2022-09-23T14:28:48.032Z,9.365917
2022-09-23T14:29:13.035Z,9.365971
2022-09-23T14:30:48.307Z,9.365950
2022-09-23T14:31:13.136Z,9.365870
2022-09-23T14:32:12.957Z,9.365991
2022-09-23T14:33:12.958Z,9.365960
2022-09-23T14:34:13.003Z,9.365987
2022-09-23T15:49:52.222Z,9.366177
2022-09-23T15:50:52.177Z,9.366043
2022-09-23T15:51:52.174Z,9.365987
2022-09-23T15:52:52.174Z,9.366036
2022-09-23T15:53:52.164Z,9.366068
2022-09-23T15:54:52.137Z,9.366061
2022-09-23T15:55:52.170Z,9.365993
2022-09-23T15:56:52.138Z,9.366029
2022-09-23T15:57:52.116Z,9.366114
2022-09-23T15:58:52.096Z,9.366469
2022-09-23T15:59:52.090Z,9.366469
2022-09-23T16:00:56.073Z,9.366469
2022-09-23T16:01:52.134Z,9.366469
2022-09-23T16:02:52.051Z,9.366046
2022-09-23T16:03:52.131Z,9.365642
2022-09-23T16:04:52.040Z,9.365864
2022-09-23T16:05:52.023Z,9.365620
2022-09-23T16:06:52.034Z,9.365799
2022-09-23T16:07:52.044Z,9.366102
2022-09-23T16:08:51.988Z,9.365843
2022-09-23T16:09:51.982Z,9.365817
2022-09-23T16:10:51.974Z,9.365817
2022-09-23T16:11:51.989Z,9.365817
2022-09-23T16:12:51.966Z,9.365817
2022-09-23T16:13:51.965Z,9.365817
2022-09-23T16:14:51.921Z,9.365817
2022-09-23T16:15:51.934Z,9.365817
2022-09-23T16:16:52.039Z,9.365817
2022-09-23T16:17:51.911Z,9.365976
2022-09-23T16:18:51.921Z,9.366000
2022-09-23T16:19:51.889Z,9.366016
2022-09-23T16:20:51.858Z,9.366036
2022-09-23T16:21:51.902Z,9.365988
2022-09-23T16:22:51.855Z,9.365888
2022-09-23T16:23:51.834Z,9.365950
2022-09-23T16:24:51.828Z,9.366039
2022-09-23T16:25:51.820Z,9.366055
2022-09-23T16:26:51.801Z,9.365947
2022-09-23T16:27:51.873Z,9.365936
2022-09-23T16:28:51.808Z,9.365947
2022-09-23T16:29:51.793Z,9.366076
2022-09-23T16:30:51.774Z,9.366036
2022-09-23T16:31:51.890Z,9.365974
2022-09-23T16:32:51.822Z,9.366010
2022-09-23T16:33:51.799Z,9.365906
2022-09-23T16:34:51.741Z,9.365894
2022-09-23T16:35:51.719Z,9.365890
2022-09-23T16:36:51.700Z,9.365882
2022-09-23T16:37:51.718Z,9.365931
2022-09-23T16:38:51.734Z,9.365941
2022-09-23T16:39:51.681Z,9.365947
2022-09-23T16:40:51.749Z,9.365893
2022-09-23T16:41:51.670Z,9.365946
2022-09-23T16:42:51.748Z,9.365944
2022-09-23T16:43:51.680Z,9.365915
2022-09-23T16:44:51.625Z,9.365985
2022-09-23T16:45:52.676Z,9.366054
2022-09-23T16:46:51.627Z,9.365970
2022-09-23T16:47:51.605Z,9.366040
2022-09-23T16:48:52.821Z,9.366040
2022-09-23T16:49:51.599Z,9.365812
2022-09-23T16:50:51.561Z,9.365798
2022-09-23T16:51:51.694Z,9.365940
2022-09-23T16:52:51.680Z,9.366066
2022-09-23T16:53:51.557Z,9.366185
2022-09-23T16:54:51.566Z,9.366006